Time;durP1;ratioP1;P1;durP2;ratioP2;P2;SDS_P1;SDS_P2;PMS_P1;PMS_P2;Temp;Humidity;BMP_temperature;BMP_pressure;BME280_temperature;BME280_humidity;BME280_pressure;Samples;Min_cycle;Max_cycle;Signal;HPM_P1;HPM_P2
2022/04/30 00:02:07;;;;;;;25.90;16.48;;;;;;;16.43;85.54;100303.16;5143966;27;20214;-73
2022/04/30 00:04:37;;;;;;;27.50;17.52;;;;;;;16.18;86.66;100283.09;5140723;27;20301;-73
2022/04/30 00:07:03;;;;;;;26.95;17.73;;;;;;;15.98;89.40;100300.69;5138312;27;20046;-73
2022/04/30 00:09:29;;;;;;;25.98;17.02;;;;;;;15.55;92.76;100306.56;5144247;27;20257;-73
2022/04/30 00:11:55;;;;;;;35.58;18.70;;;;;;;15.63;93.62;100306.56;5141609;27;20034;-73
2022/04/30 00:14:21;;;;;;;32.65;19.38;;;;;;;15.57;92.93;100285.88;5138501;27;20039;-73
2022/04/30 00:16:47;;;;;;;29.33;18.70;;;;;;;15.33;94.27;100291.41;5139879;27;20035;-73
2022/04/30 00:19:13;;;;;;;32.28;18.27;;;;;;;15.32;94.79;100295.91;5139033;27;20019;-73
2022/04/30 00:21:38;;;;;;;33.85;19.75;;;;;;;15.52;94.27;100293.56;5122346;27;20023;-73
2022/04/30 00:24:04;;;;;;;28.52;18.00;;;;;;;15.67;93.46;100300.84;5138922;27;20126;-73
2022/04/30 00:26:29;;;;;;;30.20;18.15;;;;;;;15.91;91.75;100298.75;5119956;27;20023;-73
2022/04/30 00:28:55;;;;;;;27.75;18.02;;;;;;;15.87;91.63;100299.31;5139751;27;20354;-73
2022/04/30 00:31:20;;;;;;;28.23;17.77;;;;;;;15.94;91.04;100297.56;5138040;27;20087;-73
2022/04/30 00:33:48;;;;;;;29.42;18.83;;;;;;;15.96;90.67;100296.38;5142539;27;20222;-73
2022/04/30 00:36:14;;;;;;;27.75;18.25;;;;;;;16.01;90.90;100295.81;5143544;27;20031;-73
2022/04/30 00:38:40;;;;;;;29.23;17.45;;;;;;;15.77;91.92;100277.38;5140505;27;20103;-73
2022/04/30 00:41:07;;;;;;;28.67;17.98;;;;;;;15.81;92.96;100300.03;5142507;27;20046;-73
2022/04/30 00:43:45;;;;;;;28.30;18.23;;;;;;;15.83;92.96;100293.50;5143039;27;20042;-73
2022/04/30 00:46:19;;;;;;;28.20;16.95;;;;;;;15.77;92.52;100288.06;5138309;27;20320;-73
2022/04/30 00:48:45;;;;;;;29.35;18.02;;;;;;;15.43;95.17;100283.16;5115612;28;20276;-73
2022/04/30 00:51:13;;;;;;;29.38;18.30;;;;;;;15.28;94.67;100256.44;5139823;27;20092;-73
2022/04/30 00:53:44;;;;;;;34.83;19.92;;;;;;;14.97;96.64;100288.50;5138662;27;20249;-73
2022/04/30 00:56:14;;;;;;;31.13;19.38;;;;;;;15.10;97.51;100279.91;5135613;27;20046;-73
2022/04/30 00:58:45;;;;;;;28.90;18.00;;;;;;;15.03;96.86;100274.47;5139208;27;20264;-73
2022/04/30 01:01:11;;;;;;;33.60;20.67;;;;;;;15.14;95.85;100283.91;5137872;27;20105;-73
2022/04/30 01:03:37;;;;;;;33.63;20.90;;;;;;;15.18;94.98;100286.03;5138809;27;20019;-73
2022/04/30 01:06:03;;;;;;;31.65;20.00;;;;;;;15.27;93.62;100271.63;5139961;27;20046;-73
2022/04/30 01:08:29;;;;;;;33.00;19.95;;;;;;;15.28;93.64;100269.78;5137773;27;20092;-73
2022/04/30 01:10:56;;;;;;;37.30;20.80;;;;;;;15.33;92.16;100270.06;5124505;27;20372;-73
2022/04/30 01:13:23;;;;;;;34.70;20.90;;;;;;;15.13;93.69;100269.72;5142570;27;20035;-73
2022/04/30 01:15:50;;;;;;;34.42;21.48;;;;;;;15.02;94.99;100270.16;5138025;27;20834;-73
2022/04/30 01:18:16;;;;;;;38.00;20.90;;;;;;;14.89;95.80;100272.56;5139385;27;20067;-73
2022/04/30 01:20:49;;;;;;;34.55;22.10;;;;;;;14.42;97.95;100251.31;5137786;27;20330;-73
2022/04/30 01:23:16;;;;;;;34.97;20.63;;;;;;;14.50;98.49;100268.09;5122188;27;20106;-73
2022/04/30 01:25:44;;;;;;;35.08;20.85;;;;;;;14.32;99.71;100263.00;5123667;28;20035;-73
2022/04/30 01:28:11;;;;;;;34.58;21.02;;;;;;;14.40;99.37;100275.44;5118742;27;20037;-73
2022/04/30 01:30:36;;;;;;;35.97;21.25;;;;;;;14.30;100.00;100264.19;5119062;27;20027;-73
2022/04/30 01:38:30;;;;;;;33.30;20.52;;;;;;;14.61;99.59;100273.06;5123603;27;20069;-73
2022/04/30 01:40:55;;;;;;;31.38;20.08;;;;;;;14.76;98.03;100267.81;5123495;27;20024;-74
2022/04/30 01:43:22;;;;;;;41.03;21.55;;;;;;;14.70;97.85;100260.53;5123141;28;20034;-73
2022/04/30 01:45:48;;;;;;;29.80;18.52;;;;;;;14.76;97.00;100269.66;5123235;28;20210;-73
2022/04/30 01:48:14;;;;;;;30.58;19.63;;;;;;;14.82;95.78;100274.28;5123190;28;20032;-74
2022/04/30 01:50:41;;;;;;;31.48;19.52;;;;;;;14.91;95.42;100282.06;5123738;28;20095;-73
2022/04/30 01:53:08;;;;;;;33.60;19.35;;;;;;;15.04;95.20;100278.78;5123422;27;20082;-73
2022/04/30 01:55:33;;;;;;;27.95;18.35;;;;;;;15.02;95.14;100276.31;5123562;28;20035;-73
2022/04/30 01:57:59;;;;;;;36.78;20.30;;;;;;;14.86;95.19;100267.59;5122951;28;20034;-73
2022/04/30 02:00:26;;;;;;;32.20;19.58;;;;;;;14.96;94.88;100277.03;5125707;28;20046;-73
2022/04/30 02:02:54;;;;;;;32.45;20.27;;;;;;;14.91;94.78;100273.22;5123167;28;20032;-73
2022/04/30 02:05:20;;;;;;;30.50;19.85;;;;;;;14.93;94.90;100269.38;5123394;28;20035;-73
2022/04/30 02:08:00;;;;;;;30.77;18.77;;;;;;;14.84;95.22;100264.28;5123212;28;20040;-73
2022/04/30 02:10:27;;;;;;;30.85;18.52;;;;;;;14.93;95.08;100269.38;5123345;28;20027;-73
2022/04/30 02:12:52;;;;;;;30.90;19.25;;;;;;;14.92;94.10;100270.38;5123606;28;20039;-73
2022/04/30 02:15:19;;;;;;;34.75;19.50;;;;;;;14.83;94.45;100263.44;5134856;28;20069;-73
2022/04/30 02:17:46;;;;;;;31.20;17.88;;;;;;;14.80;94.28;100261.13;5138590;28;20066;-73
2022/04/30 02:20:22;;;;;;;33.53;19.10;;;;;;;14.66;95.56;100252.06;5137426;28;20031;-73
2022/04/30 02:22:53;;;;;;;30.40;19.60;;;;;;;14.62;95.69;100255.25;5138817;28;20229;-73
2022/04/30 02:25:19;;;;;;;35.85;18.92;;;;;;;14.56;96.84;100255.91;5120866;28;20313;-73
2022/04/30 02:27:53;;;;;;;30.80;19.60;;;;;;;14.51;97.45;100259.09;5137103;28;20031;-73
2022/04/30 02:30:21;;;;;;;30.25;19.00;;;;;;;14.39;98.23;100249.81;5134643;28;20232;-73
2022/04/30 02:32:49;;;;;;;32.80;18.98;;;;;;;14.41;96.61;100247.81;5119969;28;20027;-73
2022/04/30 02:35:19;;;;;;;30.75;18.63;;;;;;;14.47;97.40;100262.28;5137308;28;20035;-73
2022/04/30 02:37:49;;;;;;;30.85;19.33;;;;;;;14.61;96.66;100256.25;5141279;28;20039;-73
2022/04/30 02:40:16;;;;;;;28.25;17.63;;;;;;;14.62;95.79;100255.25;5141406;28;20047;-73
2022/04/30 02:42:44;;;;;;;28.92;17.52;;;;;;;14.78;95.01;100263.16;5118785;28;20543;-73
2022/04/30 02:45:13;;;;;;;31.67;18.67;;;;;;;14.79;94.32;100263.97;5119300;28;20035;-73
2022/04/30 02:47:41;;;;;;;29.17;17.83;;;;;;;14.89;94.35;100265.41;5144781;27;20106;-73
2022/04/30 02:50:08;;;;;;;28.35;17.83;;;;;;;14.93;93.46;100249.88;5145465;27;20054;-73
2022/04/30 02:52:35;;;;;;;32.33;17.23;;;;;;;14.98;94.34;100266.19;5142250;27;20059;-73
2022/04/30 02:55:00;;;;;;;33.17;18.60;;;;;;;15.11;93.03;100260.25;5141098;27;20023;-73
2022/04/30 02:57:39;;;;;;;28.33;18.30;;;;;;;14.91;93.12;100223.38;5142105;27;20038;-73
2022/04/30 03:00:08;;;;;;;25.98;16.95;;;;;;;15.09;92.56;100264.94;5144611;27;20037;-73
2022/04/30 03:02:34;;;;;;;24.75;17.15;;;;;;;15.07;91.97;100257.09;5126708;27;20313;-73
2022/04/30 03:04:59;;;;;;;27.23;16.80;;;;;;;15.12;91.89;100261.91;5142338;27;20060;-73
2022/04/30 03:07:25;;;;;;;26.20;17.48;;;;;;;15.10;91.65;100259.41;5123346;27;20220;-73
2022/04/30 03:09:50;;;;;;;26.55;16.58;;;;;;;15.18;92.13;100259.34;5140961;27;20309;-73
2022/04/30 03:12:16;;;;;;;26.65;16.70;;;;;;;15.29;90.63;100258.09;5140547;27;20099;-73
2022/04/30 03:14:42;;;;;;;30.08;16.42;;;;;;;15.40;88.50;100259.50;5123396;27;20061;-73
2022/04/30 03:22:38;;;;;;;24.10;16.83;;;;;;;15.20;88.79;100261.84;5142051;27;20045;-73
2022/04/30 03:25:04;;;;;;;25.38;15.57;;;;;;;15.16;89.20;100265.88;5122096;27;20246;-73
2022/04/30 03:27:31;;;;;;;24.90;16.17;;;;;;;15.09;89.20;100259.59;5140330;27;20039;-73
2022/04/30 03:29:56;;;;;;;23.05;15.60;;;;;;;15.01;89.43;100263.16;5141458;27;20035;-73
2022/04/30 03:32:24;;;;;;;21.95;15.38;;;;;;;14.89;90.12;100259.25;5141492;27;20046;-73
2022/04/30 03:34:50;;;;;;;23.20;15.25;;;;;;;14.93;90.67;100266.72;5121937;27;20198;-73
2022/04/30 03:37:15;;;;;;;21.83;14.82;;;;;;;14.90;91.69;100272.41;5142378;27;20250;-73
2022/04/30 03:39:41;;;;;;;21.70;14.90;;;;;;;14.90;91.30;100283.06;5121708;27;20022;-73
2022/04/30 03:42:06;;;;;;;21.20;14.13;;;;;;;15.02;89.63;100273.63;5122644;27;20071;-73
2022/04/30 03:44:32;;;;;;;19.73;14.00;;;;;;;15.17;87.42;100275.53;5120904;27;20035;-73
2022/04/30 03:46:57;;;;;;;21.08;13.73;;;;;;;14.94;87.64;100239.03;5140804;27;20023;-73
2022/04/30 03:49:23;;;;;;;22.38;14.57;;;;;;;15.00;87.27;100265.00;5123398;27;20043;-73
2022/04/30 03:51:49;;;;;;;20.25;12.85;;;;;;;15.17;86.26;100267.53;5139812;27;20087;-73
2022/04/30 03:54:15;;;;;;;22.88;13.10;;;;;;;15.21;86.03;100266.16;5126633;27;20095;-73
2022/04/30 03:56:40;;;;;;;23.10;14.00;;;;;;;15.12;86.25;100268.06;5125545;27;20027;-73
2022/04/30 03:59:06;;;;;;;27.33;13.77;;;;;;;14.84;87.77;100281.09;5139634;27;20037;-73
2022/04/30 04:01:32;;;;;;;24.75;14.07;;;;;;;14.62;90.19;100276.56;5140480;27;20026;-73
2022/04/30 04:04:00;;;;;;;23.35;15.23;;;;;;;14.51;92.38;100284.94;5140367;27;20062;-73
2022/04/30 04:06:26;;;;;;;20.48;14.68;;;;;;;14.31;93.83;100280.00;5142676;27;20031;-73
2022/04/30 04:08:52;;;;;;;24.30;14.93;;;;;;;14.12;94.44;100245.78;5144116;27;20027;-73
2022/04/30 04:11:18;;;;;;;21.67;15.13;;;;;;;14.35;94.13;100281.31;5140630;27;20022;-73
2022/04/30 04:19:13;;;;;;;21.63;15.02;;;;;;;14.42;95.96;100283.28;5142177;27;20046;-73
2022/04/30 04:21:38;;;;;;;25.17;15.55;;;;;;;14.50;95.48;100277.94;5140087;27;20547;-73
2022/04/30 04:26:48;;;;;;;23.67;15.35;;;;;;;14.64;94.14;100293.22;5139655;27;20042;-74
2022/04/30 04:29:16;;;;;;;21.38;14.55;;;;;;;14.48;94.18;100287.94;5143853;27;20031;-73
2022/04/30 04:31:43;;;;;;;25.10;15.73;;;;;;;14.35;95.93;100297.28;5141380;27;20039;-73
2022/04/30 04:34:09;;;;;;;27.50;15.05;;;;;;;14.27;97.11;100289.31;5139410;27;20042;-73
2022/04/30 04:36:36;;;;;;;23.27;15.82;;;;;;;14.31;95.93;100295.97;5138941;27;20019;-73
2022/04/30 04:39:07;;;;;;;23.80;15.02;;;;;;;14.41;95.19;100300.25;5140554;27;20023;-73
2022/04/30 04:41:33;;;;;;;24.23;14.48;;;;;;;14.45;94.11;100299.78;5139858;27;20027;-73
2022/04/30 04:43:58;;;;;;;22.73;14.10;;;;;;;14.47;92.81;100296.94;5139331;27;20103;-73
2022/04/30 04:46:24;;;;;;;22.80;14.75;;;;;;;14.39;93.77;100306.59;5122081;27;20363;-73
2022/04/30 04:48:49;;;;;;;20.55;14.45;;;;;;;14.48;94.07;100303.94;5122870;27;20034;-73
2022/04/30 04:51:15;;;;;;;22.55;13.73;;;;;;;14.57;92.32;100300.25;5143018;27;20027;-73
2022/04/30 04:53:40;;;;;;;23.75;14.35;;;;;;;14.62;93.55;100306.72;5140951;27;20043;-73
2022/04/30 04:56:06;;;;;;;24.90;14.45;;;;;;;14.84;91.86;100305.09;5139238;27;20031;-73
2022/04/30 04:58:31;;;;;;;22.65;14.65;;;;;;;14.76;92.73;100305.16;5138810;27;20285;-73
2022/04/30 05:00:57;;;;;;;22.45;15.27;;;;;;;14.69;92.56;100307.69;5142861;27;20053;-73
2022/04/30 05:03:22;;;;;;;24.30;14.55;;;;;;;14.88;92.75;100305.56;5141485;27;20022;-73
2022/04/30 05:05:48;;;;;;;23.08;14.40;;;;;;;14.89;92.48;100310.72;5138061;27;20353;-73
2022/04/30 05:08:14;;;;;;;19.77;13.95;;;;;;;14.95;92.70;100311.84;5135548;27;20031;-73
2022/04/30 05:10:39;;;;;;;20.88;13.27;;;;;;;14.88;91.78;100317.06;5138526;27;20054;-73
2022/04/30 05:13:05;;;;;;;21.63;14.23;;;;;;;14.88;91.55;100313.56;5139080;27;20098;-73
2022/04/30 05:15:30;;;;;;;18.88;13.55;;;;;;;14.87;92.77;100307.41;5142535;27;20145;-75
2022/04/30 05:17:56;;;;;;;21.77;13.00;;;;;;;14.92;90.63;100322.88;5141020;27;20034;-75
2022/04/30 05:20:21;;;;;;;22.05;13.65;;;;;;;14.86;91.92;100324.41;5138632;27;20264;-75
2022/04/30 05:22:46;;;;;;;21.80;13.38;;;;;;;14.92;92.79;100329.03;5139180;27;20031;-75
2022/04/30 05:25:13;;;;;;;19.17;13.38;;;;;;;15.10;94.56;100328.75;5138245;27;20352;-75
2022/04/30 05:27:38;;;;;;;19.15;12.85;;;;;;;15.18;91.93;100328.72;5137791;27;20039;-75
2022/04/30 05:30:04;;;;;;;21.80;12.82;;;;;;;15.11;91.20;100333.09;5140570;27;20045;-75
2022/04/30 05:32:30;;;;;;;20.00;13.07;;;;;;;15.07;92.59;100323.78;5139440;27;20035;-75
2022/04/30 05:34:55;;;;;;;21.38;13.75;;;;;;;15.17;91.26;100335.06;5123020;27;20033;-73
2022/04/30 05:37:21;;;;;;;21.35;13.10;;;;;;;15.13;91.98;100338.25;5142473;27;20384;-73
2022/04/30 05:39:46;;;;;;;19.73;12.68;;;;;;;15.21;90.64;100333.69;5137626;27;20035;-73
2022/04/30 05:42:11;;;;;;;17.80;12.82;;;;;;;15.10;91.92;100339.44;5138647;27;20097;-73
2022/04/30 05:44:37;;;;;;;19.92;12.23;;;;;;;15.19;91.77;100346.38;5137486;27;20104;-73
2022/04/30 05:47:03;;;;;;;19.83;12.88;;;;;;;15.24;90.88;100340.50;5138838;27;20080;-73
2022/04/30 05:49:28;;;;;;;20.20;12.25;;;;;;;15.26;91.27;100352.66;5138146;27;20036;-74
2022/04/30 05:51:53;;;;;;;22.35;12.75;;;;;;;15.42;90.22;100349.03;5138170;27;20031;-73
2022/04/30 05:54:19;;;;;;;21.83;13.15;;;;;;;15.60;89.80;100343.41;5137131;27;20106;-73
2022/04/30 05:56:45;;;;;;;20.33;12.65;;;;;;;16.04;88.40;100345.38;5137019;27;20194;-74
2022/04/30 05:59:10;;;;;;;21.35;13.10;;;;;;;16.22;86.03;100343.19;5138780;28;20576;-73
2022/04/30 06:01:36;;;;;;;19.40;12.35;;;;;;;16.33;85.27;100342.72;5137350;28;20091;-73
2022/04/30 06:04:02;;;;;;;19.45;12.30;;;;;;;16.13;83.48;100344.28;5119826;28;20034;-73
2022/04/30 06:06:27;;;;;;;22.73;12.43;;;;;;;16.10;85.32;100337.47;5130324;28;20031;-73
2022/04/30 06:08:53;;;;;;;17.80;12.18;;;;;;;15.94;84.05;100341.13;5143051;28;20093;-73
2022/04/30 06:11:18;;;;;;;18.80;12.18;;;;;;;15.90;84.05;100341.69;5142666;28;20310;-73
2022/04/30 06:13:44;;;;;;;18.60;12.90;;;;;;;16.08;84.80;100342.16;5142755;28;20035;-73
2022/04/30 06:16:09;;;;;;;21.17;12.15;;;;;;;16.40;83.81;100340.13;5142910;28;20054;-73
2022/04/30 06:18:35;;;;;;;22.00;13.18;;;;;;;16.58;81.14;100338.72;5142479;28;20404;-73
2022/04/30 06:21:01;;;;;;;20.13;12.05;;;;;;;16.63;79.88;100338.16;5145793;27;20095;-73
2022/04/30 06:23:27;;;;;;;23.85;12.95;;;;;;;16.81;79.67;100340.50;5146973;27;20026;-73
2022/04/30 06:25:52;;;;;;;21.83;13.05;;;;;;;16.68;80.35;100327.81;5146526;27;20037;-73
2022/04/30 06:28:18;;;;;;;16.45;12.48;;;;;;;16.63;78.91;100334.66;5146758;27;20027;-73
2022/04/30 06:30:43;;;;;;;21.33;12.85;;;;;;;16.69;79.80;100337.50;5146904;27;20031;-73
2022/04/30 06:33:09;;;;;;;17.27;11.38;;;;;;;16.64;76.76;100341.66;5146903;27;20220;-74
2022/04/30 06:35:37;;;;;;;20.60;11.00;;;;;;;16.42;78.14;100332.75;5146616;27;20288;-73
2022/04/30 06:38:02;;;;;;;16.75;12.07;;;;;;;16.53;78.25;100337.63;5146729;27;20296;-73
2022/04/30 06:40:28;;;;;;;18.05;12.55;;;;;;;16.71;79.53;100326.59;5146728;27;20594;-74
2022/04/30 06:42:54;;;;;;;15.07;10.40;;;;;;;17.56;73.80;100337.34;5146008;27;20027;-73
2022/04/30 06:45:19;;;;;;;20.48;11.50;;;;;;;18.19;73.47;100330.25;5146492;27;20110;-73
2022/04/30 06:47:44;;;;;;;16.45;10.40;;;;;;;18.77;69.62;100328.09;5114985;27;20031;-73
2022/04/30 06:50:11;;;;;;;13.70;9.40;;;;;;;19.41;67.04;100331.16;5146523;27;20087;-74
2022/04/30 06:58:10;;;;;;;14.50;9.93;;;;;;;21.05;61.62;100328.38;5133008;27;20274;-73
2022/04/30 07:01:28;;;;;;;12.77;8.70;;;;;;;21.53;58.67;100335.97;5127061;27;20040;-73
2022/04/30 07:03:27;;;;;;;12.38;8.80;;;;;;;21.67;54.08;100338.31;5124944;28;20211;-73
2022/04/30 07:06:04;;;;;;;16.20;9.55;;;;;;;21.30;55.82;100336.53;5121279;27;20228;-73
2022/04/30 07:08:34;;;;;;;19.73;9.05;;;;;;;21.87;51.93;100332.78;5126394;27;20035;-73
2022/04/30 07:11:01;;;;;;;13.55;8.93;;;;;;;22.26;50.74;100325.38;5126214;27;20230;-73
2022/04/30 07:13:27;;;;;;;14.32;8.45;;;;;;;22.47;50.19;100326.81;5126246;27;20039;-73
2022/04/30 07:15:52;;;;;;;14.77;8.90;;;;;;;22.41;49.01;100325.81;5126051;27;20027;-73
2022/04/30 07:18:18;;;;;;;16.48;8.88;;;;;;;21.64;53.05;100317.22;5126042;28;20216;-73
2022/04/30 07:20:44;;;;;;;11.50;8.75;;;;;;;21.97;51.86;100326.91;5126114;27;20035;-73
2022/04/30 07:23:09;;;;;;;12.68;9.10;;;;;;;22.11;51.18;100333.84;5121444;27;20030;-73
2022/04/30 07:25:35;;;;;;;11.43;8.75;;;;;;;22.52;50.35;100325.06;5126349;28;20023;-73
2022/04/30 07:28:00;;;;;;;13.63;9.95;;;;;;;23.05;48.80;100329.03;5125808;28;20259;-73
2022/04/30 07:30:26;;;;;;;13.07;8.88;;;;;;;23.06;48.91;100328.78;5126434;27;20039;-73
2022/04/30 07:32:51;;;;;;;16.83;9.48;;;;;;;23.40;47.94;100338.06;5125183;28;20027;-73
2022/04/30 07:35:17;;;;;;;13.05;8.40;;;;;;;23.56;46.51;100337.41;5126149;28;20035;-73
2022/04/30 07:37:42;;;;;;;11.60;7.75;;;;;;;23.70;45.90;100335.31;5125815;27;20030;-73
2022/04/30 07:40:08;;;;;;;10.88;9.07;;;;;;;23.72;44.72;100327.78;5125989;27;20027;-73
2022/04/30 07:42:34;;;;;;;13.48;9.43;;;;;;;22.63;47.50;100321.63;5125423;27;20046;-73
2022/04/30 07:44:59;;;;;;;14.80;9.82;;;;;;;21.99;48.54;100325.63;5117319;28;20337;-73
2022/04/30 07:47:26;;;;;;;12.50;9.18;;;;;;;21.88;48.94;100328.22;5105046;28;20032;-73
2022/04/30 07:49:51;;;;;;;12.30;8.80;;;;;;;22.18;49.65;100326.50;5105327;28;20096;-73
2022/04/30 07:52:17;;;;;;;14.30;9.98;;;;;;;21.52;50.81;100326.22;5105427;28;20059;-73
2022/04/30 07:54:43;;;;;;;13.95;9.60;;;;;;;20.31;55.24;100320.78;5105217;28;20334;-73
2022/04/30 07:57:08;;;;;;;13.77;8.95;;;;;;;20.86;52.06;100311.28;5103110;28;20297;-73
2022/04/30 07:59:34;;;;;;;12.65;10.02;;;;;;;21.72;50.98;100321.50;5112233;28;20038;-73
2022/04/30 08:02:00;;;;;;;14.70;9.48;;;;;;;21.90;50.08;100318.03;5121718;28;20269;-73
2022/04/30 08:04:25;;;;;;;13.10;8.95;;;;;;;22.60;48.20;100313.16;5123890;28;20267;-73
2022/04/30 08:06:51;;;;;;;12.32;9.68;;;;;;;23.24;45.51;100303.59;5116947;28;20035;-73
2022/04/30 08:09:16;;;;;;;14.88;7.97;;;;;;;23.32;45.38;100300.56;5118580;28;20094;-73
2022/04/30 08:11:42;;;;;;;12.35;8.05;;;;;;;23.53;44.52;100308.09;5119857;28;20036;-73
2022/04/30 08:14:08;;;;;;;10.48;8.50;;;;;;;23.82;42.88;100303.69;5118361;28;20035;-73
2022/04/30 08:16:33;;;;;;;12.80;8.25;;;;;;;24.08;42.03;100301.59;5121848;28;20031;-73
2022/04/30 08:18:59;;;;;;;11.43;8.02;;;;;;;24.42;41.84;100299.91;5121526;28;20100;-73
2022/04/30 08:21:25;;;;;;;11.65;7.82;;;;;;;24.49;40.72;100297.91;5123724;28;20048;-73
2022/04/30 08:23:51;;;;;;;14.30;8.27;;;;;;;24.45;42.94;100299.44;5123777;28;20050;-73
2022/04/30 08:26:17;;;;;;;10.70;7.50;;;;;;;25.26;40.88;100308.34;5118438;28;20743;-73
2022/04/30 08:28:42;;;;;;;12.20;8.23;;;;;;;25.46;39.54;100301.38;5118654;28;20053;-73
2022/04/30 08:31:08;;;;;;;15.50;8.32;;;;;;;24.82;38.89;100300.72;5118136;28;20329;-73
2022/04/30 08:33:33;;;;;;;9.95;7.82;;;;;;;24.21;39.61;100304.03;5118546;28;20321;-73
2022/04/30 08:35:59;;;;;;;10.18;7.20;;;;;;;23.36;41.52;100299.03;5119978;27;20027;-73
2022/04/30 08:38:24;;;;;;;10.77;7.72;;;;;;;23.67;45.22;100297.09;5118728;28;20218;-73
2022/04/30 08:40:50;;;;;;;12.60;7.18;;;;;;;24.41;41.28;100285.56;5119495;27;20040;-73
2022/04/30 08:43:16;;;;;;;13.25;7.70;;;;;;;24.85;39.24;100291.28;5116999;28;20024;-73
2022/04/30 08:45:44;;;;;;;10.20;6.85;;;;;;;25.19;38.00;100294.13;5132733;27;20110;-74
2022/04/30 08:48:12;;;;;;;8.70;6.65;;;;;;;24.43;38.04;100278.03;5139920;27;20309;-73
2022/04/30 08:50:39;;;;;;;8.52;6.25;;;;;;;23.60;39.25;100281.00;5138949;27;20203;-73
2022/04/30 08:53:04;;;;;;;9.55;6.57;;;;;;;23.03;41.06;100294.13;5136492;27;20062;-73
2022/04/30 08:55:30;;;;;;;8.20;6.65;;;;;;;22.57;42.59;100286.59;5139096;27;20070;-73
2022/04/30 08:57:56;;;;;;;7.93;6.28;;;;;;;23.39;41.32;100274.25;5137637;27;20054;-73
2022/04/30 09:00:21;;;;;;;9.18;6.13;;;;;;;23.66;39.11;100277.34;5120595;27;20122;-73
2022/04/30 09:02:57;;;;;;;8.18;5.78;;;;;;;24.08;38.80;100272.66;5123628;27;20019;-73
2022/04/30 09:05:31;;;;;;;9.90;6.72;;;;;;;24.61;37.38;100265.38;5124818;27;20035;-73
2022/04/30 09:07:59;;;;;;;7.15;5.10;;;;;;;24.46;37.17;100268.59;5137792;27;20053;-73
2022/04/30 09:10:30;;;;;;;6.80;4.93;;;;;;;23.75;38.97;100264.31;5138383;27;20039;-73
2022/04/30 09:13:05;;;;;;;7.38;4.93;;;;;;;23.62;38.92;100261.84;5138232;27;20070;-73
2022/04/30 09:15:32;;;;;;;7.28;5.65;;;;;;;23.75;40.03;100256.19;5139487;27;20027;-73
2022/04/30 09:17:58;;;;;;;5.72;4.68;;;;;;;24.01;38.52;100253.03;5137702;27;20042;-73
2022/04/30 09:20:24;;;;;;;5.97;4.78;;;;;;;23.63;36.79;100229.16;5139879;27;20095;-73
2022/04/30 09:22:50;;;;;;;6.15;4.53;;;;;;;23.39;37.49;100255.34;5137607;27;20027;-73
2022/04/30 09:25:16;;;;;;;6.80;5.28;;;;;;;23.57;38.04;100251.72;5133394;27;20039;-73
2022/04/30 09:27:44;;;;;;;6.25;4.70;;;;;;;23.32;37.83;100256.50;5123629;28;20233;-73
2022/04/30 09:30:31;;;;;;;5.50;4.20;;;;;;;23.02;38.45;100251.97;5123903;28;20038;-73
2022/04/30 09:33:03;;;;;;;5.88;4.43;;;;;;;23.05;37.57;100251.50;5138708;27;20321;-73
2022/04/30 09:38:15;;;;;;;5.88;3.85;;;;;;;22.90;39.17;100232.22;5143315;27;20091;-73
2022/04/30 09:40:50;;;;;;;7.22;4.55;;;;;;;23.06;39.33;100239.66;5143006;27;20027;-73
2022/04/30 09:43:16;;;;;;;6.65;4.22;;;;;;;22.66;40.63;100235.84;5125150;27;20027;-73
2022/04/30 09:45:42;;;;;;;7.70;4.05;;;;;;;22.53;40.07;100229.56;5142955;27;20042;-73
2022/04/30 09:53:56;;;;;;;6.53;3.92;;;;;;;22.22;40.16;100218.97;5143149;27;20046;-73
2022/04/30 09:56:44;;;;;;;6.03;3.70;;;;;;;22.07;41.08;100230.16;5142743;27;20035;-73
2022/04/30 09:59:15;;;;;;;3.78;3.38;;;;;;;21.63;42.76;100226.63;5124798;28;20126;-73
2022/04/30 10:01:42;;;;;;;5.80;3.75;;;;;;;21.57;42.20;100221.28;5142783;28;20031;-74
2022/04/30 10:04:11;;;;;;;5.57;3.92;;;;;;;21.25;41.96;100218.69;5127521;28;20087;-73
2022/04/30 10:06:43;;;;;;;5.22;3.92;;;;;;;21.78;41.31;100199.31;5123376;28;20073;-73
2022/04/30 10:09:14;;;;;;;5.25;3.15;;;;;;;21.77;39.63;100221.09;5123386;28;20047;-73
2022/04/30 10:11:53;;;;;;;8.45;3.30;;;;;;;21.22;40.36;100212.88;5122770;28;20114;-73
2022/04/30 10:14:43;;;;;;;4.13;3.33;;;;;;;21.57;42.07;100213.22;5123372;28;20031;-73
2022/04/30 10:17:13;;;;;;;7.93;3.97;;;;;;;21.69;43.17;100203.34;5137264;28;20038;-73
2022/04/30 10:19:55;;;;;;;6.35;4.10;;;;;;;21.77;40.26;100184.19;5143101;28;20039;-73
2022/04/30 10:22:20;;;;;;;5.85;3.38;;;;;;;21.89;40.21;100206.69;5142621;28;20023;-73
2022/04/30 10:24:53;;;;;;;5.65;3.97;;;;;;;21.98;41.51;100201.81;5142844;28;20035;-73
2022/04/30 10:27:18;;;;;;;5.25;3.35;;;;;;;21.63;41.91;100180.81;5142553;28;20035;-74
2022/04/30 10:29:52;;;;;;;4.45;3.22;;;;;;;21.22;39.48;100199.41;5142905;28;20278;-73
2022/04/30 10:32:31;;;;;;;5.97;3.58;;;;;;;21.06;42.59;100202.66;5142392;28;20090;-73
2022/04/30 10:34:56;;;;;;;28.05;5.85;;;;;;;20.94;45.15;100200.66;5124547;28;20205;-74
2022/04/30 10:37:29;;;;;;;4.78;3.85;;;;;;;21.18;45.67;100195.50;5124744;28;20038;-74
2022/04/30 10:39:59;;;;;;;6.00;3.88;;;;;;;21.13;45.11;100171.13;5142852;28;20039;-74
2022/04/30 10:42:45;;;;;;;6.35;3.60;;;;;;;21.62;43.20;100186.41;5142910;28;20256;-74
2022/04/30 10:45:15;;;;;;;5.78;3.53;;;;;;;21.67;41.89;100190.09;5142299;28;20047;-74
2022/04/30 10:47:55;;;;;;;7.10;3.92;;;;;;;21.72;41.54;100188.59;5142005;28;20031;-74
2022/04/30 10:50:22;;;;;;;7.28;4.05;;;;;;;21.89;42.23;100189.69;5106854;28;20034;-74
2022/04/30 10:52:50;;;;;;;5.35;3.92;;;;;;;21.45;42.90;100178.09;5140397;28;20217;-74
2022/04/30 10:55:18;;;;;;;7.18;3.90;;;;;;;21.52;42.05;100181.53;5142189;28;20035;-74
2022/04/30 10:57:45;;;;;;;4.90;3.38;;;;;;;21.86;40.29;100177.47;5106734;28;20027;-73
2022/04/30 11:00:11;;;;;;;5.63;3.70;;;;;;;22.05;41.87;100186.41;5140388;28;20046;-73
2022/04/30 11:02:37;;;;;;;5.05;3.63;;;;;;;21.67;41.15;100178.50;5142010;28;20047;-74
2022/04/30 11:05:04;;;;;;;5.60;3.70;;;;;;;21.81;42.27;100149.50;5142438;28;20027;-73
2022/04/30 11:07:32;;;;;;;7.05;3.78;;;;;;;22.41;42.03;100177.44;5144036;27;20325;-74
2022/04/30 11:09:57;;;;;;;4.80;3.63;;;;;;;22.67;41.56;100170.00;5127542;27;20038;-73
2022/04/30 11:12:33;;;;;;;5.82;3.47;;;;;;;22.86;40.66;100168.91;5145779;27;20303;-74
2022/04/30 11:14:59;;;;;;;4.78;3.22;;;;;;;22.96;39.63;100160.25;5146392;27;20106;-74
2022/04/30 11:17:25;;;;;;;4.70;3.03;;;;;;;22.46;39.89;100163.25;5145619;27;20027;-73
2022/04/30 11:19:52;;;;;;;4.95;3.35;;;;;;;22.11;41.21;100163.94;5146030;27;20039;-73
2022/04/30 11:22:19;;;;;;;11.02;3.47;;;;;;;22.08;40.01;100161.69;5145723;27;20031;-74
2022/04/30 11:24:45;;;;;;;3.47;3.13;;;;;;;21.54;41.51;100162.47;5145885;27;20087;-74
2022/04/30 11:27:12;;;;;;;3.97;3.20;;;;;;;21.73;39.96;100139.84;5142699;27;20431;-74
2022/04/30 11:29:48;;;;;;;4.97;3.60;;;;;;;21.79;42.07;100135.44;5142814;27;20039;-74
2022/04/30 11:32:27;;;;;;;3.47;2.92;;;;;;;22.16;40.67;100152.47;5145573;27;20050;-73
2022/04/30 11:35:00;;;;;;;6.13;2.83;;;;;;;22.22;40.69;100148.84;5145714;27;20225;-74
2022/04/30 11:37:26;;;;;;;5.32;2.90;;;;;;;22.35;40.57;100143.28;5145481;27;20042;-74
2022/04/30 11:39:52;;;;;;;6.20;2.72;;;;;;;22.21;41.01;100139.09;5145888;27;20321;-73
2022/04/30 11:42:23;;;;;;;6.10;3.20;;;;;;;22.30;41.71;100149.34;5125407;28;20023;-73
2022/04/30 11:44:52;;;;;;;3.53;2.53;;;;;;;22.01;39.49;100139.34;5139140;27;20047;-73
2022/04/30 11:47:20;;;;;;;3.88;2.45;;;;;;;21.98;40.28;100134.41;5145395;27;20031;-73
2022/04/30 11:49:46;;;;;;;4.75;2.22;;;;;;;21.67;39.91;100136.19;5145663;27;20107;-73